Time;durP1;ratioP1;P1;durP2;ratioP2;P2;SDS_P1;SDS_P2;PMS_P1;PMS_P2;Temp;Humidity;BMP_temperature;BMP_pressure;BME280_temperature;BME280_humidity;BME280_pressure;Samples;Min_cycle;Max_cycle;Signal;HPM_P1;HPM_P2
2021/11/28 00:00:26;;;;;;;7.30;3.27;;;;;;;;;;4950660;28;20035;-60
2021/11/28 00:02:53;;;;;;;6.87;2.50;;;;;;;;;;4957011;28;20127;-59
2021/11/28 00:05:22;;;;;;;12.43;2.60;;;;;;;;;;4955795;29;20024;-59
2021/11/28 00:15:59;;;;;;;12.50;3.40;;;;;;;;;;4952208;28;20030;-59
2021/11/28 00:18:27;;;;;;;7.70;2.87;;;;;;;;;;4950162;28;20438;-60
2021/11/28 00:20:54;;;;;;;6.73;3.00;;;;;;;;;;4949939;28;20188;-60
2021/11/28 00:23:21;;;;;;;5.50;2.60;;;;;;;;;;4950231;29;20023;-59
2021/11/28 00:25:47;;;;;;;12.47;3.03;;;;;;;;;;4956401;28;20161;-59
2021/11/28 00:28:16;;;;;;;9.57;3.87;;;;;;;;;;4955995;28;20439;-59
2021/11/28 00:30:43;;;;;;;12.77;3.10;;;;;;;;;;4954821;28;20414;-60
2021/11/28 00:33:09;;;;;;;9.10;3.30;;;;;;;;;;4955355;29;20027;-59
2021/11/28 00:35:36;;;;;;;6.57;2.80;;;;;;;;;;4955226;28;20101;-59
2021/11/28 00:38:03;;;;;;;6.73;2.83;;;;;;;;;;4966849;28;20027;-60
2021/11/28 00:40:30;;;;;;;6.27;2.70;;;;;;;;;;4969248;28;20122;-59
2021/11/28 00:42:58;;;;;;;5.27;3.27;;;;;;;;;;4969015;28;20027;-60
2021/11/28 00:45:25;;;;;;;7.40;3.07;;;;;;;;;;4969038;28;20117;-59
2021/11/28 00:47:52;;;;;;;7.23;2.70;;;;;;;;;;4967645;28;20038;-59
2021/11/28 00:51:21;;;;;;;5.47;3.27;;;;;;;;;;4974078;28;20027;-59
2021/11/28 00:53:07;;;;;;;10.60;3.60;;;;;;;;;;4963841;28;20039;-59
2021/11/28 00:55:34;;;;;;;7.07;3.47;;;;;;;;;;4973813;28;20406;-59
2021/11/28 00:58:01;;;;;;;12.00;3.80;;;;;;;;;;4966176;28;20602;-59
2021/11/28 01:00:28;;;;;;;6.87;2.93;;;;;;;;;;4950309;28;20039;-60
2021/11/28 01:02:54;;;;;;;5.80;2.67;;;;;;;;;;4949411;29;20031;-59
2021/11/28 01:05:21;;;;;;;6.73;2.57;;;;;;;;;;4949298;29;20053;-59
2021/11/28 01:07:48;;;;;;;9.10;2.63;;;;;;;;;;4967916;28;20478;-59
2021/11/28 01:10:15;;;;;;;10.40;3.80;;;;;;;;;;4972554;28;20023;-59
2021/11/28 01:12:42;;;;;;;11.13;3.73;;;;;;;;;;4972120;28;20034;-59
2021/11/28 01:15:11;;;;;;;14.00;3.87;;;;;;;;;;4973722;28;20031;-59
2021/11/28 01:17:38;;;;;;;5.37;3.40;;;;;;;;;;4956496;28;20031;-59
2021/11/28 01:20:05;;;;;;;6.00;2.47;;;;;;;;;;4954178;28;20039;-59
2021/11/28 01:22:32;;;;;;;4.93;2.50;;;;;;;;;;4964285;28;20547;-59
2021/11/28 01:24:59;;;;;;;6.60;3.30;;;;;;;;;;4968523;28;20034;-59
2021/11/28 01:27:25;;;;;;;7.80;3.40;;;;;;;;;;4968164;28;20022;-59
2021/11/28 01:29:52;;;;;;;7.27;2.83;;;;;;;;;;4968610;28;20034;-59
2021/11/28 01:32:19;;;;;;;8.57;3.13;;;;;;;;;;4958252;28;20034;-59
2021/11/28 01:34:46;;;;;;;12.87;2.90;;;;;;;;;;4953963;29;20098;-59
2021/11/28 01:37:12;;;;;;;6.20;3.23;;;;;;;;;;4957577;28;20031;-59
2021/11/28 01:39:39;;;;;;;8.60;3.63;;;;;;;;;;4973363;28;20029;-59
2021/11/28 01:42:06;;;;;;;6.90;2.97;;;;;;;;;;4971309;28;20046;-59
2021/11/28 01:44:33;;;;;;;14.27;5.27;;;;;;;;;;4970157;28;20045;-59
2021/11/28 01:47:00;;;;;;;10.37;3.47;;;;;;;;;;4956566;28;20035;-59
2021/11/28 01:49:27;;;;;;;8.70;3.67;;;;;;;;;;4948432;28;20031;-59
2021/11/28 01:51:54;;;;;;;8.47;3.10;;;;;;;;;;4957489;28;20031;-59
2021/11/28 01:54:21;;;;;;;15.63;4.10;;;;;;;;;;4970542;28;20481;-59
2021/11/28 01:56:49;;;;;;;8.47;3.40;;;;;;;;;;4972924;28;20047;-59
2021/11/28 01:59:16;;;;;;;7.93;4.30;;;;;;;;;;4972893;28;20027;-59
2021/11/28 02:01:43;;;;;;;6.70;3.80;;;;;;;;;;4965920;28;20430;-59
2021/11/28 02:04:14;;;;;;;7.73;3.20;;;;;;;;;;4954044;29;20056;-59
2021/11/28 02:06:43;;;;;;;9.20;2.87;;;;;;;;;;4950729;29;20070;-58
2021/11/28 02:09:09;;;;;;;13.27;3.83;;;;;;;;;;4948645;29;20050;-59
2021/11/28 02:11:39;;;;;;;13.33;4.10;;;;;;;;;;4950672;28;20082;-59
2021/11/28 02:14:06;;;;;;;14.23;4.10;;;;;;;;;;4948049;28;20040;-59
2021/11/28 02:16:33;;;;;;;11.60;3.10;;;;;;;;;;4950882;28;20019;-59
2021/11/28 02:19:00;;;;;;;8.83;3.83;;;;;;;;;;4971237;28;20449;-59
2021/11/28 02:21:27;;;;;;;8.40;3.97;;;;;;;;;;4967730;28;20118;-59
2021/11/28 02:23:54;;;;;;;10.93;3.57;;;;;;;;;;4953934;29;20087;-58
2021/11/28 02:26:21;;;;;;;10.53;3.73;;;;;;;;;;4953703;28;20086;-59
2021/11/28 02:28:48;;;;;;;12.03;3.23;;;;;;;;;;4969058;28;20127;-59
2021/11/28 02:31:16;;;;;;;15.37;4.27;;;;;;;;;;4964827;28;20402;-59
2021/11/28 02:33:43;;;;;;;8.00;3.30;;;;;;;;;;4950396;28;20027;-59
2021/11/28 02:36:10;;;;;;;9.07;3.10;;;;;;;;;;4952016;28;20117;-59
2021/11/28 02:38:37;;;;;;;8.20;3.27;;;;;;;;;;4967369;28;20039;-59
2021/11/28 02:41:04;;;;;;;12.60;3.90;;;;;;;;;;4972861;28;20386;-59
2021/11/28 02:43:34;;;;;;;6.50;3.97;;;;;;;;;;4976485;28;20034;-58
2021/11/28 02:46:03;;;;;;;13.07;3.80;;;;;;;;;;4958451;28;20038;-59
2021/11/28 02:48:30;;;;;;;11.37;3.97;;;;;;;;;;4962791;28;20039;-58
2021/11/28 02:50:58;;;;;;;10.60;3.80;;;;;;;;;;4955322;28;20397;-59
2021/11/28 02:53:25;;;;;;;9.30;4.77;;;;;;;;;;4952537;28;20035;-59
2021/11/28 02:56:00;;;;;;;12.23;4.57;;;;;;;;;;4951679;28;20027;-58
2021/11/28 02:58:27;;;;;;;11.65;4.53;;;;;;;;;;4951922;29;20035;-59
2021/11/28 03:00:59;;;;;;;9.60;4.17;;;;;;;;;;4952978;28;20298;-58
2021/11/28 03:03:27;;;;;;;7.40;3.67;;;;;;;;;;4971581;28;20482;-58
2021/11/28 03:05:54;;;;;;;10.97;4.53;;;;;;;;;;4976072;28;20478;-58
2021/11/28 03:08:21;;;;;;;9.40;4.93;;;;;;;;;;4975690;28;20019;-58
2021/11/28 03:10:49;;;;;;;8.33;4.33;;;;;;;;;;4975782;28;20023;-58
2021/11/28 03:13:22;;;;;;;6.17;3.90;;;;;;;;;;4961778;28;20474;-59
2021/11/28 03:15:50;;;;;;;7.37;3.80;;;;;;;;;;4953135;28;20038;-58
2021/11/28 03:18:18;;;;;;;12.00;3.63;;;;;;;;;;4965361;28;20439;-59
2021/11/28 03:20:45;;;;;;;6.10;4.07;;;;;;;;;;4969152;28;20378;-59
2021/11/28 03:23:14;;;;;;;8.53;4.60;;;;;;;;;;4971619;28;20470;-58
2021/11/28 03:25:41;;;;;;;8.67;4.90;;;;;;;;;;4975415;28;20035;-58
2021/11/28 03:28:18;;;;;;;6.80;3.20;;;;;;;;;;4973105;28;20030;-58
2021/11/28 03:30:46;;;;;;;12.30;3.40;;;;;;;;;;4956656;28;20023;-59
2021/11/28 03:33:13;;;;;;;6.97;4.27;;;;;;;;;;4969442;28;20022;-58
2021/11/28 03:35:39;;;;;;;10.43;4.20;;;;;;;;;;4973372;28;20478;-58
2021/11/28 03:38:06;;;;;;;7.13;3.80;;;;;;;;;;4968313;28;20466;-58
2021/11/28 03:40:36;;;;;;;7.27;4.00;;;;;;;;;;4951120;28;20067;-59
2021/11/28 03:43:03;;;;;;;8.17;3.60;;;;;;;;;;4951334;29;20039;-58
2021/11/28 03:45:30;;;;;;;8.17;3.97;;;;;;;;;;4952319;28;20106;-59
2021/11/28 03:47:57;;;;;;;6.93;3.50;;;;;;;;;;4974949;28;20023;-58
2021/11/28 03:50:24;;;;;;;6.87;3.10;;;;;;;;;;4968923;28;20065;-58
2021/11/28 03:52:50;;;;;;;12.97;4.07;;;;;;;;;;4975262;28;20082;-58
2021/11/28 03:55:18;;;;;;;5.13;3.07;;;;;;;;;;4975308;28;20027;-58
2021/11/28 03:57:45;;;;;;;9.57;4.03;;;;;;;;;;4973192;28;20101;-59
2021/11/28 04:00:12;;;;;;;7.43;3.43;;;;;;;;;;4952076;28;20039;-58
2021/11/28 04:02:41;;;;;;;6.40;3.00;;;;;;;;;;4950640;28;20039;-59
2021/11/28 04:05:09;;;;;;;8.17;3.80;;;;;;;;;;4970128;28;20051;-58
2021/11/28 04:07:38;;;;;;;11.50;3.53;;;;;;;;;;4970478;28;20035;-58
2021/11/28 04:10:07;;;;;;;9.93;3.67;;;;;;;;;;4957887;28;20479;-58
2021/11/28 04:12:34;;;;;;;13.13;3.60;;;;;;;;;;4955834;29;20438;-58
2021/11/28 04:15:01;;;;;;;4.83;3.57;;;;;;;;;;4955838;29;20027;-58
2021/11/28 04:17:29;;;;;;;6.90;3.20;;;;;;;;;;4955480;28;20038;-59
2021/11/28 04:19:56;;;;;;;12.27;3.40;;;;;;;;;;4968881;28;20043;-58
2021/11/28 04:22:23;;;;;;;8.43;3.20;;;;;;;;;;4969960;28;20441;-58
2021/11/28 04:24:50;;;;;;;9.37;3.90;;;;;;;;;;4969284;28;20026;-58
2021/11/28 04:27:17;;;;;;;9.47;3.90;;;;;;;;;;4955508;28;20023;-59
2021/11/28 04:29:44;;;;;;;7.07;3.47;;;;;;;;;;4963597;28;20042;-59
2021/11/28 04:32:11;;;;;;;7.87;3.23;;;;;;;;;;4974471;28;20105;-58
2021/11/28 04:34:38;;;;;;;8.43;2.77;;;;;;;;;;4974453;28;20034;-58
2021/11/28 04:37:05;;;;;;;5.50;3.83;;;;;;;;;;4974351;28;20035;-58
2021/11/28 04:39:32;;;;;;;6.67;3.47;;;;;;;;;;4945850;29;20110;-58
2021/11/28 04:41:58;;;;;;;6.13;3.13;;;;;;;;;;4953360;28;20420;-58
2021/11/28 04:44:25;;;;;;;8.87;2.67;;;;;;;;;;4933742;28;20038;-59
2021/11/28 04:46:52;;;;;;;4.67;2.93;;;;;;;;;;4968088;28;20027;-58
2021/11/28 04:49:19;;;;;;;9.33;3.20;;;;;;;;;;4969123;28;20070;-59
2021/11/28 04:51:46;;;;;;;6.03;3.10;;;;;;;;;;4967855;28;20471;-59
2021/11/28 04:54:13;;;;;;;4.37;2.63;;;;;;;;;;4973939;28;20030;-57
2021/11/28 04:56:40;;;;;;;6.57;3.10;;;;;;;;;;4972844;28;20023;-57
2021/11/28 04:59:07;;;;;;;6.43;3.30;;;;;;;;;;4972306;28;20074;-58
2021/11/28 05:01:34;;;;;;;5.87;3.10;;;;;;;;;;4973853;28;20442;-57
2021/11/28 05:04:01;;;;;;;11.43;4.63;;;;;;;;;;4973856;28;20509;-58
2021/11/28 05:06:28;;;;;;;9.97;4.63;;;;;;;;;;4957858;28;20478;-58
2021/11/28 05:08:56;;;;;;;14.10;5.67;;;;;;;;;;4949973;28;20031;-57
2021/11/28 05:11:23;;;;;;;11.93;5.40;;;;;;;;;;4966964;28;20473;-57
2021/11/28 05:13:49;;;;;;;11.20;7.00;;;;;;;;;;4968168;28;20037;-57
2021/11/28 05:16:16;;;;;;;9.17;5.47;;;;;;;;;;4972621;28;20031;-57
2021/11/28 05:18:43;;;;;;;15.63;8.27;;;;;;;;;;4973365;28;20106;-56
2021/11/28 05:21:10;;;;;;;13.87;8.73;;;;;;;;;;4954980;28;20503;-57
2021/11/28 05:23:36;;;;;;;12.73;8.07;;;;;;;;;;4954590;29;20553;-57
2021/11/28 05:26:04;;;;;;;19.33;11.37;;;;;;;;;;4954449;28;20039;-57
2021/11/28 05:28:30;;;;;;;14.30;8.53;;;;;;;;;;4949521;29;20601;-57
2021/11/28 05:30:57;;;;;;;15.40;8.90;;;;;;;;;;4964269;28;20042;-57
2021/11/28 05:33:24;;;;;;;16.73;9.60;;;;;;;;;;4968389;28;20023;-57
2021/11/28 05:35:51;;;;;;;12.40;7.60;;;;;;;;;;4960731;28;20066;-57
2021/11/28 05:38:17;;;;;;;21.00;12.50;;;;;;;;;;4952880;29;20050;-57
2021/11/28 05:40:44;;;;;;;30.10;13.03;;;;;;;;;;4967720;28;20097;-58
2021/11/28 05:43:11;;;;;;;19.63;12.30;;;;;;;;;;4973727;28;20030;-57
2021/11/28 05:45:38;;;;;;;15.17;9.20;;;;;;;;;;4973017;28;20031;-57
2021/11/28 05:48:04;;;;;;;14.87;7.90;;;;;;;;;;4959173;28;20031;-57
2021/11/28 05:50:32;;;;;;;9.87;6.57;;;;;;;;;;4954897;28;20869;-57
2021/11/28 05:52:59;;;;;;;13.33;7.00;;;;;;;;;;4949011;28;20043;-57
2021/11/28 05:55:26;;;;;;;12.27;7.30;;;;;;;;;;4948599;29;20030;-57
2021/11/28 05:57:53;;;;;;;16.10;8.37;;;;;;;;;;4948772;29;20027;-57
2021/11/28 06:00:20;;;;;;;10.80;6.97;;;;;;;;;;4958568;28;20035;-57
2021/11/28 06:02:47;;;;;;;11.87;8.40;;;;;;;;;;4953613;29;20050;-57
2021/11/28 06:05:14;;;;;;;20.77;8.73;;;;;;;;;;4956260;28;20023;-57
2021/11/28 06:07:41;;;;;;;12.93;8.40;;;;;;;;;;4973449;28;20034;-57
2021/11/28 06:10:08;;;;;;;12.60;6.60;;;;;;;;;;4968673;28;20035;-57
2021/11/28 06:12:35;;;;;;;10.17;5.37;;;;;;;;;;4954318;29;20581;-56
2021/11/28 06:15:01;;;;;;;8.50;4.73;;;;;;;;;;4952374;28;20383;-57
2021/11/28 06:17:28;;;;;;;8.50;4.93;;;;;;;;;;4952497;29;20031;-57
2021/11/28 06:19:55;;;;;;;8.13;5.20;;;;;;;;;;4952530;28;20487;-57
2021/11/28 06:22:22;;;;;;;7.67;4.77;;;;;;;;;;4955260;28;20073;-57
2021/11/28 06:24:48;;;;;;;10.57;5.87;;;;;;;;;;4972350;28;20042;-57
2021/11/28 06:27:17;;;;;;;7.73;4.67;;;;;;;;;;4970548;28;20019;-57
2021/11/28 06:29:44;;;;;;;7.27;4.20;;;;;;;;;;4961769;28;20059;-57
2021/11/28 06:32:11;;;;;;;7.10;4.07;;;;;;;;;;4976993;28;20028;-57
2021/11/28 06:34:37;;;;;;;4.60;2.90;;;;;;;;;;4973262;28;20030;-57
2021/11/28 06:37:04;;;;;;;8.10;3.00;;;;;;;;;;4955051;28;20023;-57
2021/11/28 06:39:31;;;;;;;6.17;3.30;;;;;;;;;;4956889;28;20481;-57
2021/11/28 06:41:58;;;;;;;5.70;3.90;;;;;;;;;;4969556;28;20066;-57
2021/11/28 06:44:24;;;;;;;6.33;3.80;;;;;;;;;;4973462;28;20488;-57
2021/11/28 06:46:51;;;;;;;8.37;3.90;;;;;;;;;;4976443;28;20082;-57
2021/11/28 06:49:18;;;;;;;5.07;3.20;;;;;;;;;;4976316;28;20027;-57
2021/11/28 06:51:45;;;;;;;8.03;3.23;;;;;;;;;;4962299;28;20688;-57
2021/11/28 06:54:11;;;;;;;6.37;3.53;;;;;;;;;;4957085;28;20075;-57
2021/11/28 06:56:38;;;;;;;6.77;3.83;;;;;;;;;;4954524;29;20078;-57
2021/11/28 06:59:05;;;;;;;8.83;4.60;;;;;;;;;;4951966;29;20391;-57
2021/11/28 07:01:32;;;;;;;6.90;4.37;;;;;;;;;;4962676;28;20303;-54
2021/11/28 07:03:58;;;;;;;6.27;3.97;;;;;;;;;;4970580;28;20277;-55
2021/11/28 07:06:25;;;;;;;6.23;3.60;;;;;;;;;;4972390;28;20122;-54
2021/11/28 07:08:52;;;;;;;7.87;4.00;;;;;;;;;;4976261;28;20029;-54
2021/11/28 07:11:18;;;;;;;7.00;4.40;;;;;;;;;;4973604;28;20297;-54
2021/11/28 07:13:46;;;;;;;6.57;3.33;;;;;;;;;;4976104;28;20453;-54
2021/11/28 07:16:13;;;;;;;5.67;3.90;;;;;;;;;;4975721;28;20269;-54
2021/11/28 07:18:43;;;;;;;5.37;3.00;;;;;;;;;;4972835;28;20261;-54
2021/11/28 07:21:10;;;;;;;7.13;3.70;;;;;;;;;;4966413;28;20347;-54
2021/11/28 07:23:37;;;;;;;8.50;4.33;;;;;;;;;;4970322;28;20279;-55
2021/11/28 07:26:04;;;;;;;7.03;3.90;;;;;;;;;;4961033;28;20276;-55
2021/11/28 07:28:31;;;;;;;4.90;3.07;;;;;;;;;;4953084;29;20265;-57
2021/11/28 07:30:58;;;;;;;8.87;4.00;;;;;;;;;;4962250;28;20265;-57
2021/11/28 07:33:25;;;;;;;6.20;3.60;;;;;;;;;;4975547;28;20308;-57
2021/11/28 07:35:52;;;;;;;6.97;4.03;;;;;;;;;;4975740;28;20268;-57
2021/11/28 07:38:18;;;;;;;5.60;3.40;;;;;;;;;;4975270;28;20253;-57
2021/11/28 07:40:45;;;;;;;5.13;3.33;;;;;;;;;;4969643;28;20296;-57
2021/11/28 07:43:13;;;;;;;6.83;3.70;;;;;;;;;;4951058;29;20780;-57
2021/11/28 07:45:40;;;;;;;9.93;4.40;;;;;;;;;;4956739;28;20322;-57
2021/11/28 07:48:07;;;;;;;10.27;4.57;;;;;;;;;;4969915;28;20363;-57
2021/11/28 07:50:34;;;;;;;6.80;3.60;;;;;;;;;;4968690;28;20343;-57
2021/11/28 07:53:00;;;;;;;6.00;3.53;;;;;;;;;;4955679;29;20396;-57
2021/11/28 07:55:27;;;;;;;11.83;5.67;;;;;;;;;;4957010;28;20265;-57
2021/11/28 07:57:54;;;;;;;8.67;4.10;;;;;;;;;;4974642;28;20346;-57
2021/11/28 08:00:20;;;;;;;7.00;3.70;;;;;;;;;;4968079;28;20757;-59
2021/11/28 08:02:48;;;;;;;8.30;4.70;;;;;;;;;;4973894;28;20265;-57
2021/11/28 08:05:15;;;;;;;8.73;4.30;;;;;;;;;;4969333;28;20267;-57
2021/11/28 08:07:42;;;;;;;8.57;4.77;;;;;;;;;;4969988;28;20359;-56
2021/11/28 08:10:09;;;;;;;10.10;4.83;;;;;;;;;;4969177;28;20252;-57
2021/11/28 08:12:35;;;;;;;6.50;3.67;;;;;;;;;;4952513;28;20277;-57
2021/11/28 08:15:03;;;;;;;7.43;3.63;;;;;;;;;;4972173;28;20273;-57
2021/11/28 08:17:34;;;;;;;9.37;4.10;;;;;;;;;;4967669;28;20273;-57
2021/11/28 08:20:01;;;;;;;7.97;4.60;;;;;;;;;;4955275;28;20273;-57
2021/11/28 08:22:27;;;;;;;13.67;5.60;;;;;;;;;;4955577;29;20834;-56
2021/11/28 08:24:54;;;;;;;6.30;4.30;;;;;;;;;;4966676;28;20272;-57
2021/11/28 08:27:21;;;;;;;7.20;4.03;;;;;;;;;;4969175;28;20268;-57
2021/11/28 08:29:48;;;;;;;10.70;3.97;;;;;;;;;;4953703;28;20305;-57
2021/11/28 08:32:14;;;;;;;18.63;5.10;;;;;;;;;;4949443;28;20324;-57
2021/11/28 08:34:41;;;;;;;10.87;3.63;;;;;;;;;;4950348;29;20256;-57
2021/11/28 08:37:08;;;;;;;7.03;3.70;;;;;;;;;;4955134;28;20273;-57
2021/11/28 08:39:35;;;;;;;8.47;3.37;;;;;;;;;;4967415;28;20795;-56
2021/11/28 08:42:04;;;;;;;5.90;3.27;;;;;;;;;;4964808;28;20289;-56
2021/11/28 08:44:31;;;;;;;5.93;3.40;;;;;;;;;;4955136;29;20265;-57
2021/11/28 08:46:57;;;;;;;6.33;3.27;;;;;;;;;;4955167;28;20320;-57
2021/11/28 08:49:24;;;;;;;5.27;3.07;;;;;;;;;;4957849;28;20277;-57
2021/11/28 08:51:51;;;;;;;8.97;3.23;;;;;;;;;;4969081;28;20269;-57
2021/11/28 08:54:18;;;;;;;5.90;3.67;;;;;;;;;;4969040;28;20261;-57
2021/11/28 08:56:45;;;;;;;5.13;3.63;;;;;;;;;;4953252;28;20265;-57
2021/11/28 08:59:12;;;;;;;5.57;3.43;;;;;;;;;;4964093;28;20360;-57
2021/11/28 09:01:39;;;;;;;6.97;3.80;;;;;;;;;;4954771;29;20340;-57
2021/11/28 09:04:06;;;;;;;6.63;3.97;;;;;;;;;;4954829;29;20250;-57
2021/11/28 09:06:33;;;;;;;6.40;4.13;;;;;;;;;;4954691;28;20273;-54
2021/11/28 09:09:00;;;;;;;7.87;4.53;;;;;;;;;;4961080;28;20265;-55
2021/11/28 09:11:27;;;;;;;8.83;4.10;;;;;;;;;;4956973;28;20276;-55
2021/11/28 09:13:54;;;;;;;6.13;3.90;;;;;;;;;;4963461;28;20269;-54
2021/11/28 09:16:21;;;;;;;6.17;3.57;;;;;;;;;;4968679;28;20269;-54
2021/11/28 09:18:51;;;;;;;6.20;4.03;;;;;;;;;;4956807;28;20437;-54
2021/11/28 09:21:18;;;;;;;5.50;3.47;;;;;;;;;;4962755;28;20299;-54
2021/11/28 09:26:33;;;;;;;6.33;3.77;;;;;;;;;;4974113;28;20280;-54
2021/11/28 09:29:01;;;;;;;5.67;3.50;;;;;;;;;;4973626;28;20297;-54
2021/11/28 09:31:30;;;;;;;9.83;3.97;;;;;;;;;;4962270;28;20268;-54
2021/11/28 09:33:56;;;;;;;5.80;3.67;;;;;;;;;;4949904;28;20273;-55
2021/11/28 09:36:24;;;;;;;5.30;3.07;;;;;;;;;;4949065;28;20269;-54
2021/11/28 09:38:51;;;;;;;5.47;3.47;;;;;;;;;;4948880;28;20276;-54
2021/11/28 09:41:18;;;;;;;5.10;3.43;;;;;;;;;;4962464;28;20413;-54
2021/11/28 09:43:50;;;;;;;6.97;4.10;;;;;;;;;;4973079;28;20344;-54
2021/11/28 09:46:19;;;;;;;6.00;3.80;;;;;;;;;;4973371;28;20269;-54
2021/11/28 09:48:47;;;;;;;7.70;4.27;;;;;;;;;;4964193;28;20344;-54
2021/11/28 09:51:14;;;;;;;8.47;4.17;;;;;;;;;;4966195;28;20269;-54
2021/11/28 09:53:43;;;;;;;9.27;3.87;;;;;;;;;;4972553;28;20315;-54
2021/11/28 09:56:10;;;;;;;7.23;4.13;;;;;;;;;;4967730;28;20272;-54
2021/11/28 09:58:38;;;;;;;7.67;4.00;;;;;;;;;;4968072;28;20279;-54
2021/11/28 10:01:05;;;;;;;5.77;3.77;;;;;;;;;;4962260;28;20284;-54
2021/11/28 10:03:32;;;;;;;6.10;3.40;;;;;;;;;;4968673;28;21219;-54
2021/11/28 10:05:59;;;;;;;6.10;3.83;;;;;;;;;;4972200;28;20276;-55
2021/11/28 10:08:26;;;;;;;6.97;4.10;;;;;;;;;;4973543;28;20264;-54
2021/11/28 10:11:11;;;;;;;6.70;4.17;;;;;;;;;;4963582;28;20273;-54
2021/11/28 10:13:38;;;;;;;6.22;3.85;;;;;;;;;;4954168;29;20265;-54
2021/11/28 10:16:05;;;;;;;7.27;3.63;;;;;;;;;;4952455;28;20024;-54
2021/11/28 10:18:34;;;;;;;6.90;4.10;;;;;;;;;;4956989;28;20271;-54
2021/11/28 10:21:01;;;;;;;9.37;3.77;;;;;;;;;;4956964;28;20293;-54
2021/11/28 10:23:28;;;;;;;6.43;3.73;;;;;;;;;;4948320;28;20286;-55
2021/11/28 10:26:15;;;;;;;6.87;3.87;;;;;;;;;;4949456;29;20324;-54
2021/11/28 10:28:59;;;;;;;5.77;3.20;;;;;;;;;;4953438;28;20301;-54
2021/11/28 10:31:26;;;;;;;4.78;3.10;;;;;;;;;;4962426;28;20300;-55
2021/11/28 10:33:53;;;;;;;7.43;3.90;;;;;;;;;;4953960;29;20054;-54
2021/11/28 10:36:20;;;;;;;5.20;3.67;;;;;;;;;;4953801;29;20264;-54
2021/11/28 10:38:47;;;;;;;8.33;3.93;;;;;;;;;;4951406;28;20321;-54
2021/11/28 10:41:34;;;;;;;6.37;3.67;;;;;;;;;;4959140;28;20376;-54
2021/11/28 10:44:12;;;;;;;8.27;3.63;;;;;;;;;;4967716;28;20743;-54
2021/11/28 10:46:38;;;;;;;5.60;3.40;;;;;;;;;;4967112;28;20617;-55
2021/11/28 10:49:09;;;;;;;6.20;3.40;;;;;;;;;;4969752;28;20269;-54
2021/11/28 10:51:37;;;;;;;11.17;4.60;;;;;;;;;;4958253;28;20289;-54
2021/11/28 10:54:22;;;;;;;9.47;4.30;;;;;;;;;;4954588;28;20312;-54
2021/11/28 10:56:49;;;;;;;5.90;3.63;;;;;;;;;;4957287;28;20296;-54
2021/11/28 10:59:19;;;;;;;8.63;4.13;;;;;;;;;;4957131;29;20034;-54
2021/11/28 11:01:46;;;;;;;8.60;4.20;;;;;;;;;;4967976;28;20300;-54
2021/11/28 11:04:19;;;;;;;6.80;4.40;;;;;;;;;;4970799;28;20277;-54
2021/11/28 11:07:05;;;;;;;6.07;3.97;;;;;;;;;;4970830;28;20319;-55
2021/11/28 11:09:40;;;;;;;7.90;4.60;;;;;;;;;;4957474;28;20355;-54
2021/11/28 11:12:32;;;;;;;7.00;4.23;;;;;;;;;;4975466;28;20838;-54
2021/11/28 11:14:59;;;;;;;7.67;4.27;;;;;;;;;;4975271;28;20316;-54
2021/11/28 11:17:27;;;;;;;6.97;4.47;;;;;;;;;;4961244;28;20265;-54
2021/11/28 11:19:55;;;;;;;6.20;4.50;;;;;;;;;;4974928;28;20348;-54
2021/11/28 11:22:24;;;;;;;8.40;5.60;;;;;;;;;;4975307;28;20292;-54
2021/11/28 11:24:53;;;;;;;5.70;3.97;;;;;;;;;;4970372;28;20273;-54
2021/11/28 11:27:23;;;;;;;7.83;4.57;;;;;;;;;;4966548;28;20279;-55
2021/11/28 11:29:51;;;;;;;7.00;4.40;;;;;;;;;;4951435;29;20300;-54
2021/11/28 11:32:24;;;;;;;7.03;4.10;;;;;;;;;;4950888;29;20265;-54
2021/11/28 11:34:58;;;;;;;6.20;4.17;;;;;;;;;;4956276;28;20271;-54
2021/11/28 11:37:26;;;;;;;6.30;3.70;;;;;;;;;;4960090;28;20612;-54
2021/11/28 11:39:54;;;;;;;5.87;3.57;;;;;;;;;;4975485;28;20272;-54
2021/11/28 11:42:22;;;;;;;4.10;2.67;;;;;;;;;;4975546;28;20288;-54
2021/11/28 11:44:50;;;;;;;5.77;3.57;;;;;;;;;;4974352;28;20348;-54
2021/11/28 11:47:17;;;;;;;8.97;3.17;;;;;;;;;;4951240;28;20308;-54
2021/11/28 11:49:44;;;;;;;6.30;3.50;;;;;;;;;;4968500;28;20356;-54
2021/11/28 11:52:12;;;;;;;8.27;3.80;;;;;;;;;;4969877;28;20311;-54
2021/11/28 11:54:47;;;;;;;4.93;2.90;;;;;;;;;;4970316;28;20260;-54
2021/11/28 11:57:16;;;;;;;6.78;3.95;;;;;;;;;;4972671;28;20259;-54
2021/11/28 11:59:48;;;;;;;7.63;4.07;;;;;;;;;;4956194;29;20037;-54
2021/11/28 12:02:28;;;;;;;6.17;3.23;;;;;;;;;;4955836;28;20293;-54
2021/11/28 12:04:54;;;;;;;6.13;3.40;;;;;;;;;;4955834;28;20270;-54
2021/11/28 12:07:41;;;;;;;8.17;3.70;;;;;;;;;;4954577;28;20273;-54
2021/11/28 12:10:26;;;;;;;4.73;3.10;;;;;;;;;;4950225;28;20613;-55
2021/11/28 12:12:53;;;;;;;7.10;3.17;;;;;;;;;;4950556;29;20258;-54
2021/11/28 12:15:23;;;;;;;3.77;2.90;;;;;;;;;;4949982;28;20095;-54
2021/11/28 12:17:52;;;;;;;4.70;3.07;;;;;;;;;;4962261;28;20324;-54
2021/11/28 12:20:38;;;;;;;6.47;4.00;;;;;;;;;;4963349;28;20280;-54
2021/11/28 12:23:05;;;;;;;6.00;3.70;;;;;;;;;;4955465;28;20269;-54
2021/11/28 12:25:47;;;;;;;7.43;4.53;;;;;;;;;;4955168;29;20324;-54
2021/11/28 12:28:26;;;;;;;8.13;4.23;;;;;;;;;;4959922;28;20274;-54
2021/11/28 12:31:01;;;;;;;6.37;4.13;;;;;;;;;;4950602;29;20257;-54
2021/11/28 12:33:46;;;;;;;6.65;3.55;;;;;;;;;;4949683;29;20257;-54
2021/11/28 12:36:33;;;;;;;7.20;4.53;;;;;;;;;;4950080;28;20027;-54
2021/11/28 12:39:05;;;;;;;9.07;4.10;;;;;;;;;;4967942;28;20031;-54
2021/11/28 12:41:57;;;;;;;6.00;3.20;;;;;;;;;;4974791;28;20294;-54
2021/11/28 12:44:25;;;;;;;3.90;2.60;;;;;;;;;;4974428;28;20345;-54
2021/11/28 12:46:55;;;;;;;4.73;3.20;;;;;;;;;;4972472;28;20644;-54
2021/11/28 12:49:31;;;;;;;5.13;3.30;;;;;;;;;;4954858;28;20276;-54
2021/11/28 12:52:16;;;;;;;7.07;3.87;;;;;;;;;;4968937;28;20269;-54
2021/11/28 12:54:44;;;;;;;10.10;4.03;;;;;;;;;;4968892;28;20256;-54
2021/11/28 12:57:19;;;;;;;10.03;3.90;;;;;;;;;;4964484;28;20085;-54
2021/11/28 13:00:04;;;;;;;6.93;3.93;;;;;;;;;;4949634;29;20376;-54
2021/11/28 13:02:42;;;;;;;4.25;3.05;;;;;;;;;;4952627;29;20289;-54
2021/11/28 13:05:28;;;;;;;5.20;3.27;;;;;;;;;;4956161;28;20035;-54
2021/11/28 13:08:14;;;;;;;5.13;3.22;;;;;;;;;;4962610;28;20377;-54
2021/11/28 13:10:46;;;;;;;6.87;2.53;;;;;;;;;;4941770;28;20035;-54
2021/11/28 13:13:16;;;;;;;5.00;3.60;;;;;;;;;;4954727;29;20253;-54
2021/11/28 13:15:48;;;;;;;6.27;3.50;;;;;;;;;;4949202;28;20304;-54
2021/11/28 13:18:17;;;;;;;5.53;3.57;;;;;;;;;;4954909;28;20807;-54
2021/11/28 13:20:44;;;;;;;5.33;3.37;;;;;;;;;;4953144;28;20326;-54
2021/11/28 13:23:12;;;;;;;5.33;3.37;;;;;;;;;;4948940;29;20265;-54
2021/11/28 13:25:43;;;;;;;5.50;3.37;;;;;;;;;;4954438;29;20273;-54
2021/11/28 13:28:12;;;;;;;6.57;4.40;;;;;;;;;;4966938;28;20285;-54
2021/11/28 13:30:45;;;;;;;9.23;3.60;;;;;;;;;;4973354;28;20284;-54
2021/11/28 13:33:13;;;;;;;6.03;2.90;;;;;;;;;;4954236;29;20783;-54
2021/11/28 13:35:40;;;;;;;7.17;3.33;;;;;;;;;;4959643;28;21056;-54
2021/11/28 13:38:12;;;;;;;6.57;3.50;;;;;;;;;;4967941;28;20261;-54
2021/11/28 13:40:39;;;;;;;7.40;3.47;;;;;;;;;;4968121;28;20320;-54
2021/11/28 13:43:06;;;;;;;6.40;3.70;;;;;;;;;;4949470;28;20357;-54
2021/11/28 13:45:33;;;;;;;9.67;3.17;;;;;;;;;;4949200;29;20296;-54
2021/11/28 13:48:00;;;;;;;7.47;4.40;;;;;;;;;;4953992;28;20261;-55
2021/11/28 13:50:27;;;;;;;11.03;3.90;;;;;;;;;;4953788;28;20586;-54
2021/11/28 13:53:09;;;;;;;6.37;3.93;;;;;;;;;;4970478;28;20321;-54
2021/11/28 13:55:49;;;;;;;7.87;3.33;;;;;;;;;;4973144;28;20268;-54
2021/11/28 13:58:16;;;;;;;6.90;3.93;;;;;;;;;;4971530;28;20352;-54
2021/11/28 14:00:43;;;;;;;6.87;3.60;;;;;;;;;;4967368;28;20297;-54
2021/11/28 14:03:09;;;;;;;5.27;2.90;;;;;;;;;;4949291;28;20281;-54
2021/11/28 14:05:36;;;;;;;6.57;3.73;;;;;;;;;;4948670;29;20271;-54
2021/11/28 14:08:03;;;;;;;7.07;4.63;;;;;;;;;;4964984;28;20359;-54
2021/11/28 14:10:30;;;;;;;7.13;4.37;;;;;;;;;;4971595;28;20253;-53
2021/11/28 14:12:58;;;;;;;6.93;4.00;;;;;;;;;;4954372;28;20340;-55
2021/11/28 14:15:29;;;;;;;6.33;3.80;;;;;;;;;;4953583;28;20315;-54
2021/11/28 14:18:07;;;;;;;6.67;4.67;;;;;;;;;;4953773;28;20277;-54
2021/11/28 14:20:38;;;;;;;6.60;4.07;;;;;;;;;;4951653;28;20287;-54
2021/11/28 14:23:06;;;;;;;6.57;4.70;;;;;;;;;;4965554;28;20315;-54
2021/11/28 14:25:37;;;;;;;6.37;4.07;;;;;;;;;;4961564;28;20665;-54
2021/11/28 14:28:23;;;;;;;9.40;3.90;;;;;;;;;;4948329;28;20281;-54
2021/11/28 14:30:54;;;;;;;9.38;4.20;;;;;;;;;;4961927;28;20280;-54
2021/11/28 14:33:22;;;;;;;15.77;8.53;;;;;;;;;;4957627;28;20035;-54
2021/11/28 14:35:56;;;;;;;20.17;10.97;;;;;;;;;;4964681;28;20272;-54
2021/11/28 14:38:23;;;;;;;17.47;10.73;;;;;;;;;;4976730;28;20694;-54
2021/11/28 14:40:53;;;;;;;19.67;10.07;;;;;;;;;;4976775;28;20031;-54
2021/11/28 14:43:20;;;;;;;15.37;8.13;;;;;;;;;;4969440;28;20031;-54
2021/11/28 14:45:47;;;;;;;12.00;7.27;;;;;;;;;;4952006;28;20042;-55
2021/11/28 14:48:15;;;;;;;14.33;7.37;;;;;;;;;;4951544;28;20475;-55
2021/11/28 14:50:49;;;;;;;13.50;7.63;;;;;;;;;;4951930;28;20023;-54
2021/11/28 14:53:17;;;;;;;10.30;6.10;;;;;;;;;;4954770;29;20548;-55
2021/11/28 14:55:44;;;;;;;8.33;4.63;;;;;;;;;;4960923;28;20039;-54
2021/11/28 14:58:12;;;;;;;6.90;4.03;;;;;;;;;;4957166;29;20047;-54
2021/11/28 15:00:39;;;;;;;7.20;3.63;;;;;;;;;;4962406;28;20027;-55